sensor_id;sensor_type;location;lat;lon;timestamp;P1;durP1;ratioP1;P2;durP2;ratioP2
38787;SDS011;24536;45.488;12.238;2024-03-17T00:00:53;27.58;;;22.73;;
38787;SDS011;24536;45.488;12.238;2024-03-17T00:03:19;26.45;;;23.52;;
38787;SDS011;24536;45.488;12.238;2024-03-17T00:05:45;28.98;;;23.52;;
38787;SDS011;24536;45.488;12.238;2024-03-17T00:08:10;28.40;;;23.45;;
38787;SDS011;24536;45.488;12.238;2024-03-17T00:10:36;25.33;;;22.70;;
38787;SDS011;24536;45.488;12.238;2024-03-17T00:13:02;27.25;;;23.50;;
38787;SDS011;24536;45.488;12.238;2024-03-17T00:15:28;27.27;;;23.75;;
38787;SDS011;24536;45.488;12.238;2024-03-17T00:17:53;26.17;;;23.40;;
38787;SDS011;24536;45.488;12.238;2024-03-17T00:20:19;25.33;;;22.60;;
38787;SDS011;24536;45.488;12.238;2024-03-17T00:22:47;28.98;;;23.73;;
38787;SDS011;24536;45.488;12.238;2024-03-17T00:25:13;26.70;;;23.75;;
38787;SDS011;24536;45.488;12.238;2024-03-17T00:30:17;27.55;;;24.63;;
38787;SDS011;24536;45.488;12.238;2024-03-17T00:32:43;30.23;;;24.27;;
38787;SDS011;24536;45.488;12.238;2024-03-17T00:35:09;31.85;;;25.25;;
38787;SDS011;24536;45.488;12.238;2024-03-17T00:37:38;28.33;;;24.63;;
38787;SDS011;24536;45.488;12.238;2024-03-17T00:40:04;26.58;;;23.73;;
38787;SDS011;24536;45.488;12.238;2024-03-17T00:42:31;27.10;;;24.20;;
38787;SDS011;24536;45.488;12.238;2024-03-17T00:44:57;29.65;;;23.88;;
38787;SDS011;24536;45.488;12.238;2024-03-17T00:47:25;29.42;;;24.48;;
38787;SDS011;24536;45.488;12.238;2024-03-17T00:49:50;27.05;;;23.77;;
38787;SDS011;24536;45.488;12.238;2024-03-17T00:52:16;27.80;;;24.17;;
38787;SDS011;24536;45.488;12.238;2024-03-17T00:54:42;31.63;;;25.15;;
38787;SDS011;24536;45.488;12.238;2024-03-17T00:57:12;26.92;;;23.67;;
38787;SDS011;24536;45.488;12.238;2024-03-17T00:59:37;26.92;;;23.85;;
38787;SDS011;24536;45.488;12.238;2024-03-17T01:02:03;31.38;;;24.90;;
38787;SDS011;24536;45.488;12.238;2024-03-17T01:04:29;27.10;;;22.50;;
38787;SDS011;24536;45.488;12.238;2024-03-17T01:06:57;26.50;;;23.70;;
38787;SDS011;24536;45.488;12.238;2024-03-17T01:09:22;27.83;;;24.42;;
38787;SDS011;24536;45.488;12.238;2024-03-17T01:11:48;26.80;;;23.90;;
38787;SDS011;24536;45.488;12.238;2024-03-17T01:14:13;28.33;;;23.88;;
38787;SDS011;24536;45.488;12.238;2024-03-17T01:16:39;30.23;;;24.83;;
38787;SDS011;24536;45.488;12.238;2024-03-17T01:19:05;29.10;;;24.20;;
38787;SDS011;24536;45.488;12.238;2024-03-17T01:21:30;27.20;;;24.33;;
38787;SDS011;24536;45.488;12.238;2024-03-17T01:23:56;27.00;;;23.15;;
38787;SDS011;24536;45.488;12.238;2024-03-17T01:26:22;27.92;;;23.77;;
38787;SDS011;24536;45.488;12.238;2024-03-17T01:28:49;28.40;;;23.38;;
38787;SDS011;24536;45.488;12.238;2024-03-17T01:31:14;29.17;;;25.98;;
38787;SDS011;24536;45.488;12.238;2024-03-17T01:33:40;30.65;;;24.63;;
38787;SDS011;24536;45.488;12.238;2024-03-17T01:36:06;28.10;;;24.58;;
38787;SDS011;24536;45.488;12.238;2024-03-17T01:38:32;31.50;;;25.38;;
38787;SDS011;24536;45.488;12.238;2024-03-17T01:40:57;29.35;;;25.10;;
38787;SDS011;24536;45.488;12.238;2024-03-17T01:43:24;30.08;;;26.45;;
38787;SDS011;24536;45.488;12.238;2024-03-17T01:45:49;27.38;;;24.13;;
38787;SDS011;24536;45.488;12.238;2024-03-17T01:48:15;27.10;;;24.15;;
38787;SDS011;24536;45.488;12.238;2024-03-17T01:50:44;31.40;;;26.13;;
38787;SDS011;24536;45.488;12.238;2024-03-17T01:53:11;30.50;;;25.25;;
38787;SDS011;24536;45.488;12.238;2024-03-17T01:55:38;29.73;;;25.85;;
38787;SDS011;24536;45.488;12.238;2024-03-17T01:58:05;31.23;;;26.95;;
38787;SDS011;24536;45.488;12.238;2024-03-17T02:00:35;31.90;;;25.52;;
38787;SDS011;24536;45.488;12.238;2024-03-17T02:03:04;29.90;;;25.83;;
38787;SDS011;24536;45.488;12.238;2024-03-17T02:05:31;27.73;;;24.73;;
38787;SDS011;24536;45.488;12.238;2024-03-17T02:07:57;26.83;;;24.00;;
38787;SDS011;24536;45.488;12.238;2024-03-17T02:10:24;28.00;;;25.00;;
38787;SDS011;24536;45.488;12.238;2024-03-17T02:12:50;28.27;;;24.20;;
38787;SDS011;24536;45.488;12.238;2024-03-17T02:15:16;27.65;;;23.67;;
38787;SDS011;24536;45.488;12.238;2024-03-17T02:17:42;28.63;;;24.65;;
38787;SDS011;24536;45.488;12.238;2024-03-17T02:20:07;30.17;;;25.23;;
38787;SDS011;24536;45.488;12.238;2024-03-17T02:22:36;29.40;;;24.83;;
38787;SDS011;24536;45.488;12.238;2024-03-17T02:25:02;28.50;;;24.73;;
38787;SDS011;24536;45.488;12.238;2024-03-17T02:27:28;27.63;;;24.65;;
38787;SDS011;24536;45.488;12.238;2024-03-17T02:29:55;29.98;;;24.58;;
38787;SDS011;24536;45.488;12.238;2024-03-17T02:32:20;27.70;;;24.70;;
38787;SDS011;24536;45.488;12.238;2024-03-17T02:34:48;29.63;;;25.20;;
38787;SDS011;24536;45.488;12.238;2024-03-17T02:37:13;28.08;;;24.65;;
38787;SDS011;24536;45.488;12.238;2024-03-17T02:39:39;27.45;;;24.23;;
38787;SDS011;24536;45.488;12.238;2024-03-17T02:42:05;27.92;;;24.20;;
38787;SDS011;24536;45.488;12.238;2024-03-17T02:44:33;30.20;;;24.35;;
38787;SDS011;24536;45.488;12.238;2024-03-17T02:46:59;28.52;;;24.20;;
38787;SDS011;24536;45.488;12.238;2024-03-17T02:49:26;26.70;;;23.83;;
38787;SDS011;24536;45.488;12.238;2024-03-17T02:51:52;27.17;;;23.77;;
38787;SDS011;24536;45.488;12.238;2024-03-17T02:54:19;28.88;;;25.30;;
38787;SDS011;24536;45.488;12.238;2024-03-17T02:56:45;29.25;;;24.58;;
38787;SDS011;24536;45.488;12.238;2024-03-17T02:59:11;29.95;;;25.75;;
38787;SDS011;24536;45.488;12.238;2024-03-17T03:01:37;28.48;;;25.42;;
38787;SDS011;24536;45.488;12.238;2024-03-17T03:04:03;29.42;;;25.75;;
38787;SDS011;24536;45.488;12.238;2024-03-17T03:06:28;29.63;;;26.25;;
38787;SDS011;24536;45.488;12.238;2024-03-17T03:08:54;29.40;;;26.02;;
38787;SDS011;24536;45.488;12.238;2024-03-17T03:11:20;30.55;;;26.08;;
38787;SDS011;24536;45.488;12.238;2024-03-17T03:13:45;28.00;;;24.73;;
38787;SDS011;24536;45.488;12.238;2024-03-17T03:16:12;30.10;;;25.10;;
38787;SDS011;24536;45.488;12.238;2024-03-17T03:21:09;29.00;;;25.85;;
38787;SDS011;24536;45.488;12.238;2024-03-17T03:23:36;32.88;;;28.15;;
38787;SDS011;24536;45.488;12.238;2024-03-17T03:26:02;38.22;;;30.08;;
38787;SDS011;24536;45.488;12.238;2024-03-17T03:28:30;35.28;;;30.58;;
38787;SDS011;24536;45.488;12.238;2024-03-17T03:30:56;36.38;;;30.10;;
38787;SDS011;24536;45.488;12.238;2024-03-17T03:33:23;33.42;;;29.50;;
38787;SDS011;24536;45.488;12.238;2024-03-17T03:35:49;34.20;;;29.92;;
38787;SDS011;24536;45.488;12.238;2024-03-17T03:38:15;34.70;;;29.55;;
38787;SDS011;24536;45.488;12.238;2024-03-17T03:40:42;35.53;;;30.70;;
38787;SDS011;24536;45.488;12.238;2024-03-17T03:43:08;36.10;;;29.75;;
38787;SDS011;24536;45.488;12.238;2024-03-17T03:45:35;33.72;;;30.05;;
38787;SDS011;24536;45.488;12.238;2024-03-17T03:48:01;33.05;;;28.65;;
38787;SDS011;24536;45.488;12.238;2024-03-17T03:50:28;32.25;;;28.70;;
38787;SDS011;24536;45.488;12.238;2024-03-17T03:52:54;33.20;;;29.40;;
38787;SDS011;24536;45.488;12.238;2024-03-17T03:55:20;33.05;;;29.00;;
38787;SDS011;24536;45.488;12.238;2024-03-17T03:57:46;33.65;;;29.50;;
38787;SDS011;24536;45.488;12.238;2024-03-17T04:00:16;34.72;;;30.10;;
38787;SDS011;24536;45.488;12.238;2024-03-17T04:02:46;32.30;;;28.90;;
38787;SDS011;24536;45.488;12.238;2024-03-17T04:05:13;37.72;;;30.45;;
38787;SDS011;24536;45.488;12.238;2024-03-17T04:07:38;39.03;;;32.50;;
38787;SDS011;24536;45.488;12.238;2024-03-17T04:10:05;40.10;;;33.17;;
38787;SDS011;24536;45.488;12.238;2024-03-17T04:12:31;36.22;;;31.90;;
38787;SDS011;24536;45.488;12.238;2024-03-17T04:14:58;39.38;;;32.75;;
38787;SDS011;24536;45.488;12.238;2024-03-17T04:17:24;37.10;;;32.33;;
38787;SDS011;24536;45.488;12.238;2024-03-17T04:19:50;35.45;;;31.23;;
38787;SDS011;24536;45.488;12.238;2024-03-17T04:22:17;35.15;;;31.05;;
38787;SDS011;24536;45.488;12.238;2024-03-17T04:24:44;36.92;;;31.50;;
38787;SDS011;24536;45.488;12.238;2024-03-17T04:27:10;36.45;;;30.63;;
38787;SDS011;24536;45.488;12.238;2024-03-17T04:29:36;35.92;;;30.02;;
38787;SDS011;24536;45.488;12.238;2024-03-17T04:32:02;34.08;;;30.02;;
38787;SDS011;24536;45.488;12.238;2024-03-17T04:34:30;35.65;;;30.23;;
38787;SDS011;24536;45.488;12.238;2024-03-17T04:36:56;36.10;;;32.22;;
38787;SDS011;24536;45.488;12.238;2024-03-17T04:39:22;36.15;;;31.58;;
38787;SDS011;24536;45.488;12.238;2024-03-17T04:41:48;36.95;;;31.98;;
38787;SDS011;24536;45.488;12.238;2024-03-17T04:44:15;34.28;;;28.83;;
38787;SDS011;24536;45.488;12.238;2024-03-17T04:46:42;34.95;;;30.60;;
38787;SDS011;24536;45.488;12.238;2024-03-17T04:49:07;34.97;;;31.17;;
38787;SDS011;24536;45.488;12.238;2024-03-17T04:51:33;36.67;;;30.50;;
38787;SDS011;24536;45.488;12.238;2024-03-17T04:54:00;35.35;;;30.33;;
38787;SDS011;24536;45.488;12.238;2024-03-17T04:56:28;33.00;;;29.17;;
38787;SDS011;24536;45.488;12.238;2024-03-17T04:58:53;34.92;;;29.50;;
38787;SDS011;24536;45.488;12.238;2024-03-17T05:01:19;34.17;;;29.98;;
38787;SDS011;24536;45.488;12.238;2024-03-17T05:03:45;32.97;;;28.67;;
38787;SDS011;24536;45.488;12.238;2024-03-17T05:06:10;31.50;;;27.30;;
38787;SDS011;24536;45.488;12.238;2024-03-17T05:08:36;31.92;;;28.17;;
38787;SDS011;24536;45.488;12.238;2024-03-17T05:11:03;29.52;;;25.85;;
38787;SDS011;24536;45.488;12.238;2024-03-17T05:13:30;27.98;;;23.27;;
38787;SDS011;24536;45.488;12.238;2024-03-17T05:15:57;28.27;;;25.20;;
38787;SDS011;24536;45.488;12.238;2024-03-17T05:18:23;28.63;;;25.35;;
38787;SDS011;24536;45.488;12.238;2024-03-17T05:21:00;30.80;;;27.33;;
38787;SDS011;24536;45.488;12.238;2024-03-17T05:23:29;28.98;;;25.88;;
38787;SDS011;24536;45.488;12.238;2024-03-17T05:25:56;31.52;;;28.13;;
38787;SDS011;24536;45.488;12.238;2024-03-17T05:28:29;28.88;;;25.88;;
38787;SDS011;24536;45.488;12.238;2024-03-17T05:30:56;31.88;;;28.08;;
38787;SDS011;24536;45.488;12.238;2024-03-17T05:33:22;29.88;;;26.38;;
38787;SDS011;24536;45.488;12.238;2024-03-17T05:35:49;31.35;;;27.50;;
38787;SDS011;24536;45.488;12.238;2024-03-17T05:38:17;29.58;;;26.17;;
38787;SDS011;24536;45.488;12.238;2024-03-17T05:40:56;32.33;;;28.92;;
38787;SDS011;24536;45.488;12.238;2024-03-17T05:43:23;30.55;;;27.27;;
38787;SDS011;24536;45.488;12.238;2024-03-17T05:45:52;29.70;;;26.50;;
38787;SDS011;24536;45.488;12.238;2024-03-17T05:48:18;31.67;;;26.58;;
38787;SDS011;24536;45.488;12.238;2024-03-17T05:50:44;31.27;;;27.88;;
38787;SDS011;24536;45.488;12.238;2024-03-17T05:53:10;32.72;;;29.05;;
38787;SDS011;24536;45.488;12.238;2024-03-17T05:55:36;33.20;;;28.70;;
38787;SDS011;24536;45.488;12.238;2024-03-17T05:58:02;32.97;;;27.98;;
38787;SDS011;24536;45.488;12.238;2024-03-17T06:00:28;34.20;;;28.60;;
38787;SDS011;24536;45.488;12.238;2024-03-17T06:02:55;30.70;;;27.40;;
38787;SDS011;24536;45.488;12.238;2024-03-17T06:05:21;31.77;;;28.17;;
38787;SDS011;24536;45.488;12.238;2024-03-17T06:07:47;31.52;;;26.27;;
38787;SDS011;24536;45.488;12.238;2024-03-17T06:10:13;27.42;;;24.52;;
38787;SDS011;24536;45.488;12.238;2024-03-17T06:12:39;28.77;;;25.65;;
38787;SDS011;24536;45.488;12.238;2024-03-17T06:15:05;31.25;;;26.58;;
38787;SDS011;24536;45.488;12.238;2024-03-17T06:17:31;29.38;;;26.13;;
38787;SDS011;24536;45.488;12.238;2024-03-17T06:19:57;31.90;;;27.67;;
38787;SDS011;24536;45.488;12.238;2024-03-17T06:22:23;29.60;;;26.30;;
38787;SDS011;24536;45.488;12.238;2024-03-17T06:24:49;28.23;;;24.23;;
38787;SDS011;24536;45.488;12.238;2024-03-17T06:27:15;25.65;;;22.85;;
38787;SDS011;24536;45.488;12.238;2024-03-17T06:29:41;27.73;;;23.80;;
38787;SDS011;24536;45.488;12.238;2024-03-17T06:32:07;27.10;;;23.30;;
38787;SDS011;24536;45.488;12.238;2024-03-17T06:34:33;25.92;;;22.63;;
38787;SDS011;24536;45.488;12.238;2024-03-17T06:36:59;27.15;;;23.27;;
38787;SDS011;24536;45.488;12.238;2024-03-17T06:39:25;24.52;;;21.38;;
38787;SDS011;24536;45.488;12.238;2024-03-17T06:41:51;25.10;;;20.25;;
38787;SDS011;24536;45.488;12.238;2024-03-17T06:44:17;21.23;;;18.60;;
38787;SDS011;24536;45.488;12.238;2024-03-17T06:46:44;21.15;;;18.95;;
38787;SDS011;24536;45.488;12.238;2024-03-17T06:49:11;18.92;;;16.58;;
38787;SDS011;24536;45.488;12.238;2024-03-17T06:51:37;16.13;;;14.43;;
38787;SDS011;24536;45.488;12.238;2024-03-17T06:54:06;15.68;;;13.98;;
38787;SDS011;24536;45.488;12.238;2024-03-17T06:56:33;15.25;;;13.65;;
38787;SDS011;24536;45.488;12.238;2024-03-17T06:59:00;15.52;;;13.75;;
38787;SDS011;24536;45.488;12.238;2024-03-17T07:01:26;17.08;;;15.13;;
38787;SDS011;24536;45.488;12.238;2024-03-17T07:03:51;15.38;;;13.77;;
38787;SDS011;24536;45.488;12.238;2024-03-17T07:06:17;17.38;;;15.50;;
38787;SDS011;24536;45.488;12.238;2024-03-17T07:08:43;17.33;;;14.75;;
38787;SDS011;24536;45.488;12.238;2024-03-17T07:11:08;18.30;;;16.17;;
38787;SDS011;24536;45.488;12.238;2024-03-17T07:13:35;17.58;;;15.68;;
38787;SDS011;24536;45.488;12.238;2024-03-17T07:16:03;18.10;;;16.08;;
38787;SDS011;24536;45.488;12.238;2024-03-17T07:18:32;18.05;;;16.20;;
38787;SDS011;24536;45.488;12.238;2024-03-17T07:20:59;18.10;;;16.20;;
38787;SDS011;24536;45.488;12.238;2024-03-17T07:23:25;19.60;;;17.50;;
38787;SDS011;24536;45.488;12.238;2024-03-17T07:25:52;18.63;;;16.48;;
38787;SDS011;24536;45.488;12.238;2024-03-17T07:28:18;18.88;;;16.48;;
38787;SDS011;24536;45.488;12.238;2024-03-17T07:30:51;16.55;;;14.85;;
38787;SDS011;24536;45.488;12.238;2024-03-17T07:33:18;17.00;;;14.20;;
38787;SDS011;24536;45.488;12.238;2024-03-17T07:35:54;17.45;;;15.10;;
38787;SDS011;24536;45.488;12.238;2024-03-17T07:38:25;17.38;;;14.82;;
38787;SDS011;24536;45.488;12.238;2024-03-17T07:40:56;15.65;;;13.88;;
38787;SDS011;24536;45.488;12.238;2024-03-17T07:43:23;18.67;;;15.82;;
38787;SDS011;24536;45.488;12.238;2024-03-17T07:46:02;20.10;;;16.80;;
38787;SDS011;24536;45.488;12.238;2024-03-17T07:48:30;19.10;;;16.63;;
38787;SDS011;24536;45.488;12.238;2024-03-17T07:51:00;17.90;;;15.60;;
38787;SDS011;24536;45.488;12.238;2024-03-17T07:53:33;19.33;;;16.27;;
38787;SDS011;24536;45.488;12.238;2024-03-17T07:56:00;18.45;;;16.45;;
38787;SDS011;24536;45.488;12.238;2024-03-17T07:58:40;16.80;;;15.00;;
38787;SDS011;24536;45.488;12.238;2024-03-17T08:01:10;18.67;;;16.40;;
38787;SDS011;24536;45.488;12.238;2024-03-17T08:06:07;19.45;;;17.10;;
38787;SDS011;24536;45.488;12.238;2024-03-17T08:08:33;18.77;;;16.77;;
38787;SDS011;24536;45.488;12.238;2024-03-17T08:10:59;21.45;;;17.83;;
38787;SDS011;24536;45.488;12.238;2024-03-17T08:13:30;16.25;;;14.63;;
38787;SDS011;24536;45.488;12.238;2024-03-17T08:16:00;16.63;;;14.93;;
38787;SDS011;24536;45.488;12.238;2024-03-17T08:18:27;17.73;;;15.27;;
38787;SDS011;24536;45.488;12.238;2024-03-17T08:20:52;16.05;;;14.43;;
38787;SDS011;24536;45.488;12.238;2024-03-17T08:23:19;16.23;;;14.52;;
38787;SDS011;24536;45.488;12.238;2024-03-17T08:25:58;15.20;;;13.60;;
38787;SDS011;24536;45.488;12.238;2024-03-17T08:28:25;14.75;;;13.05;;
38787;SDS011;24536;45.488;12.238;2024-03-17T08:30:55;13.55;;;12.15;;
38787;SDS011;24536;45.488;12.238;2024-03-17T08:33:22;13.98;;;12.68;;
38787;SDS011;24536;45.488;12.238;2024-03-17T08:36:04;12.30;;;11.05;;
38787;SDS011;24536;45.488;12.238;2024-03-17T08:38:34;13.48;;;12.18;;
38787;SDS011;24536;45.488;12.238;2024-03-17T08:41:04;12.23;;;11.02;;
38787;SDS011;24536;45.488;12.238;2024-03-17T08:43:35;12.90;;;11.60;;
38787;SDS011;24536;45.488;12.238;2024-03-17T08:46:05;12.75;;;11.40;;
38787;SDS011;24536;45.488;12.238;2024-03-17T08:48:36;13.15;;;11.85;;
38787;SDS011;24536;45.488;12.238;2024-03-17T08:53:29;12.57;;;11.27;;
38787;SDS011;24536;45.488;12.238;2024-03-17T08:55:55;12.38;;;11.18;;
38787;SDS011;24536;45.488;12.238;2024-03-17T08:58:21;12.73;;;10.82;;
38787;SDS011;24536;45.488;12.238;2024-03-17T09:00:48;11.50;;;10.30;;
38787;SDS011;24536;45.488;12.238;2024-03-17T09:03:14;11.38;;;10.10;;
38787;SDS011;24536;45.488;12.238;2024-03-17T09:05:44;11.98;;;10.77;;
38787;SDS011;24536;45.488;12.238;2024-03-17T09:10:45;10.68;;;9.68;;
38787;SDS011;24536;45.488;12.238;2024-03-17T09:13:13;10.85;;;9.75;;
38787;SDS011;24536;45.488;12.238;2024-03-17T09:15:40;9.93;;;9.00;;
38787;SDS011;24536;45.488;12.238;2024-03-17T09:18:06;11.02;;;8.55;;
38787;SDS011;24536;45.488;12.238;2024-03-17T09:20:32;10.68;;;9.15;;
38787;SDS011;24536;45.488;12.238;2024-03-17T09:22:57;11.02;;;9.73;;
38787;SDS011;24536;45.488;12.238;2024-03-17T09:25:23;10.55;;;9.27;;
38787;SDS011;24536;45.488;12.238;2024-03-17T09:27:49;11.35;;;8.80;;
38787;SDS011;24536;45.488;12.238;2024-03-17T09:30:14;9.85;;;8.93;;
38787;SDS011;24536;45.488;12.238;2024-03-17T09:32:40;9.95;;;8.20;;
38787;SDS011;24536;45.488;12.238;2024-03-17T09:35:06;8.68;;;7.78;;
38787;SDS011;24536;45.488;12.238;2024-03-17T09:37:32;9.15;;;8.25;;
38787;SDS011;24536;45.488;12.238;2024-03-17T09:39:58;9.43;;;8.52;;
38787;SDS011;24536;45.488;12.238;2024-03-17T09:42:27;8.57;;;7.57;;
38787;SDS011;24536;45.488;12.238;2024-03-17T09:44:53;9.90;;;8.90;;
38787;SDS011;24536;45.488;12.238;2024-03-17T09:47:22;9.50;;;8.45;;
38787;SDS011;24536;45.488;12.238;2024-03-17T09:49:51;8.88;;;7.65;;
38787;SDS011;24536;45.488;12.238;2024-03-17T09:52:24;10.40;;;8.55;;
38787;SDS011;24536;45.488;12.238;2024-03-17T09:55:08;10.15;;;7.75;;
38787;SDS011;24536;45.488;12.238;2024-03-17T09:57:35;11.07;;;9.40;;
38787;SDS011;24536;45.488;12.238;2024-03-17T10:00:04;11.25;;;10.05;;
38787;SDS011;24536;45.488;12.238;2024-03-17T10:02:46;12.55;;;11.07;;
38787;SDS011;24536;45.488;12.238;2024-03-17T10:05:21;11.02;;;9.93;;
38787;SDS011;24536;45.488;12.238;2024-03-17T10:07:49;11.00;;;9.80;;
38787;SDS011;24536;45.488;12.238;2024-03-17T10:10:16;11.82;;;10.63;;
38787;SDS011;24536;45.488;12.238;2024-03-17T10:12:42;11.80;;;10.10;;
38787;SDS011;24536;45.488;12.238;2024-03-17T10:15:11;11.48;;;10.27;;
38787;SDS011;24536;45.488;12.238;2024-03-17T10:17:38;12.10;;;10.85;;
38787;SDS011;24536;45.488;12.238;2024-03-17T10:20:23;12.88;;;11.38;;
38787;SDS011;24536;45.488;12.238;2024-03-17T10:23:04;12.10;;;10.80;;
38787;SDS011;24536;45.488;12.238;2024-03-17T10:25:32;12.90;;;11.05;;
38787;SDS011;24536;45.488;12.238;2024-03-17T10:27:59;13.98;;;12.20;;
38787;SDS011;24536;45.488;12.238;2024-03-17T10:30:26;14.20;;;11.88;;
38787;SDS011;24536;45.488;12.238;2024-03-17T10:33:03;14.38;;;12.25;;
38787;SDS011;24536;45.488;12.238;2024-03-17T10:35:32;12.77;;;11.38;;
38787;SDS011;24536;45.488;12.238;2024-03-17T10:38:04;15.40;;;13.75;;
38787;SDS011;24536;45.488;12.238;2024-03-17T10:40:31;15.98;;;14.20;;
38787;SDS011;24536;45.488;12.238;2024-03-17T10:43:04;15.98;;;13.23;;
38787;SDS011;24536;45.488;12.238;2024-03-17T10:45:30;15.52;;;12.93;;
38787;SDS011;24536;45.488;12.238;2024-03-17T10:48:07;16.88;;;14.65;;
38787;SDS011;24536;45.488;12.238;2024-03-17T10:50:37;19.40;;;14.45;;
38787;SDS011;24536;45.488;12.238;2024-03-17T10:53:04;18.17;;;15.60;;
38787;SDS011;24536;45.488;12.238;2024-03-17T10:58:33;16.23;;;13.55;;
38787;SDS011;24536;45.488;12.238;2024-03-17T11:01:11;17.55;;;14.10;;
38787;SDS011;24536;45.488;12.238;2024-03-17T11:03:39;16.73;;;13.52;;
38787;SDS011;24536;45.488;12.238;2024-03-17T11:06:05;14.45;;;12.95;;
38787;SDS011;24536;45.488;12.238;2024-03-17T11:08:33;15.13;;;12.65;;
38787;SDS011;24536;45.488;12.238;2024-03-17T11:11:00;16.30;;;12.90;;
38787;SDS011;24536;45.488;12.238;2024-03-17T11:13:29;15.75;;;12.80;;
38787;SDS011;24536;45.488;12.238;2024-03-17T11:15:56;16.98;;;13.07;;
38787;SDS011;24536;45.488;12.238;2024-03-17T11:18:31;17.85;;;13.13;;
38787;SDS011;24536;45.488;12.238;2024-03-17T11:23:35;14.57;;;12.38;;
38787;SDS011;24536;45.488;12.238;2024-03-17T11:26:02;13.82;;;11.70;;
38787;SDS011;24536;45.488;12.238;2024-03-17T11:34:00;15.15;;;11.18;;
38787;SDS011;24536;45.488;12.238;2024-03-17T11:39:00;13.95;;;9.63;;
38787;SDS011;24536;45.488;12.238;2024-03-17T11:44:13;11.85;;;8.55;;
38787;SDS011;24536;45.488;12.238;2024-03-17T11:47:01;10.05;;;8.02;;
38787;SDS011;24536;45.488;12.238;2024-03-17T11:49:38;11.63;;;9.32;;
38787;SDS011;24536;45.488;12.238;2024-03-17T11:54:35;11.05;;;8.55;;
38787;SDS011;24536;45.488;12.238;2024-03-17T11:57:02;14.50;;;9.32;;
38787;SDS011;24536;45.488;12.238;2024-03-17T11:59:35;12.60;;;9.68;;
38787;SDS011;24536;45.488;12.238;2024-03-17T12:02:16;11.45;;;8.75;;
38787;SDS011;24536;45.488;12.238;2024-03-17T12:04:45;10.23;;;7.30;;
38787;SDS011;24536;45.488;12.238;2024-03-17T12:07:12;8.52;;;7.55;;
38787;SDS011;24536;45.488;12.238;2024-03-17T12:09:44;8.88;;;7.45;;
38787;SDS011;24536;45.488;12.238;2024-03-17T12:14:47;9.18;;;6.10;;
38787;SDS011;24536;45.488;12.238;2024-03-17T12:17:14;7.78;;;5.80;;
38787;SDS011;24536;45.488;12.238;2024-03-17T12:19:45;6.65;;;5.57;;
38787;SDS011;24536;45.488;12.238;2024-03-17T12:22:16;6.18;;;5.30;;
38787;SDS011;24536;45.488;12.238;2024-03-17T12:24:53;6.90;;;5.35;;
38787;SDS011;24536;45.488;12.238;2024-03-17T12:27:25;7.85;;;6.70;;
38787;SDS011;24536;45.488;12.238;2024-03-17T12:29:52;10.00;;;7.03;;
38787;SDS011;24536;45.488;12.238;2024-03-17T12:32:19;8.27;;;7.32;;
38787;SDS011;24536;45.488;12.238;2024-03-17T12:34:47;9.02;;;7.22;;
38787;SDS011;24536;45.488;12.238;2024-03-17T12:37:21;9.20;;;7.07;;
38787;SDS011;24536;45.488;12.238;2024-03-17T12:39:50;9.25;;;6.68;;
38787;SDS011;24536;45.488;12.238;2024-03-17T12:42:17;9.43;;;6.75;;
38787;SDS011;24536;45.488;12.238;2024-03-17T12:44:49;6.68;;;6.00;;
38787;SDS011;24536;45.488;12.238;2024-03-17T12:47:16;7.32;;;4.57;;
38787;SDS011;24536;45.488;12.238;2024-03-17T12:49:47;7.63;;;4.40;;
38787;SDS011;24536;45.488;12.238;2024-03-17T12:52:20;7.38;;;5.53;;
38787;SDS011;24536;45.488;12.238;2024-03-17T12:55:06;6.38;;;4.82;;
38787;SDS011;24536;45.488;12.238;2024-03-17T13:00:44;5.60;;;4.40;;
38787;SDS011;24536;45.488;12.238;2024-03-17T13:03:10;4.93;;;4.30;;
38787;SDS011;24536;45.488;12.238;2024-03-17T13:05:50;5.88;;;4.45;;
38787;SDS011;24536;45.488;12.238;2024-03-17T13:08:16;7.32;;;4.88;;
38787;SDS011;24536;45.488;12.238;2024-03-17T13:10:42;6.18;;;4.93;;
38787;SDS011;24536;45.488;12.238;2024-03-17T13:13:09;8.65;;;5.13;;
38787;SDS011;24536;45.488;12.238;2024-03-17T13:15:37;7.65;;;5.03;;
38787;SDS011;24536;45.488;12.238;2024-03-17T13:18:05;6.53;;;4.57;;
38787;SDS011;24536;45.488;12.238;2024-03-17T13:20:31;11.07;;;5.30;;
38787;SDS011;24536;45.488;12.238;2024-03-17T13:22:57;5.82;;;4.32;;
38787;SDS011;24536;45.488;12.238;2024-03-17T13:25:25;4.75;;;4.13;;
38787;SDS011;24536;45.488;12.238;2024-03-17T13:27:55;6.78;;;5.38;;
38787;SDS011;24536;45.488;12.238;2024-03-17T13:30:21;8.90;;;5.50;;
38787;SDS011;24536;45.488;12.238;2024-03-17T13:32:49;5.45;;;4.95;;
38787;SDS011;24536;45.488;12.238;2024-03-17T13:35:23;7.78;;;5.68;;
38787;SDS011;24536;45.488;12.238;2024-03-17T13:37:54;7.75;;;5.82;;
38787;SDS011;24536;45.488;12.238;2024-03-17T13:40:21;5.38;;;4.35;;
38787;SDS011;24536;45.488;12.238;2024-03-17T13:42:52;5.97;;;4.88;;
38787;SDS011;24536;45.488;12.238;2024-03-17T13:45:19;6.32;;;4.13;;
38787;SDS011;24536;45.488;12.238;2024-03-17T13:47:50;8.10;;;5.18;;
38787;SDS011;24536;45.488;12.238;2024-03-17T13:50:18;6.35;;;4.55;;
38787;SDS011;24536;45.488;12.238;2024-03-17T13:52:44;10.32;;;4.90;;
38787;SDS011;24536;45.488;12.238;2024-03-17T13:55:16;5.75;;;3.97;;
38787;SDS011;24536;45.488;12.238;2024-03-17T13:57:46;5.65;;;4.25;;
38787;SDS011;24536;45.488;12.238;2024-03-17T14:00:14;6.63;;;4.32;;
38787;SDS011;24536;45.488;12.238;2024-03-17T14:02:47;6.85;;;4.20;;
38787;SDS011;24536;45.488;12.238;2024-03-17T14:05:15;7.18;;;4.88;;
38787;SDS011;24536;45.488;12.238;2024-03-17T14:10:12;6.65;;;5.13;;
38787;SDS011;24536;45.488;12.238;2024-03-17T14:12:39;8.30;;;5.68;;
38787;SDS011;24536;45.488;12.238;2024-03-17T14:15:06;6.38;;;5.25;;
38787;SDS011;24536;45.488;12.238;2024-03-17T14:17:42;7.32;;;5.60;;
38787;SDS011;24536;45.488;12.238;2024-03-17T14:20:09;6.55;;;5.10;;
38787;SDS011;24536;45.488;12.238;2024-03-17T14:22:37;8.63;;;5.88;;
38787;SDS011;24536;45.488;12.238;2024-03-17T14:25:07;5.40;;;4.82;;
38787;SDS011;24536;45.488;12.238;2024-03-17T14:27:36;6.95;;;4.78;;
38787;SDS011;24536;45.488;12.238;2024-03-17T14:30:03;6.28;;;5.40;;
38787;SDS011;24536;45.488;12.238;2024-03-17T14:32:33;5.72;;;4.60;;
38787;SDS011;24536;45.488;12.238;2024-03-17T14:35:00;8.75;;;5.90;;
38787;SDS011;24536;45.488;12.238;2024-03-17T14:37:26;7.57;;;5.85;;
38787;SDS011;24536;45.488;12.238;2024-03-17T14:39:52;7.93;;;5.22;;
38787;SDS011;24536;45.488;12.238;2024-03-17T14:42:19;6.15;;;4.70;;
38787;SDS011;24536;45.488;12.238;2024-03-17T14:44:45;6.38;;;5.55;;
38787;SDS011;24536;45.488;12.238;2024-03-17T14:47:12;4.75;;;4.25;;
38787;SDS011;24536;45.488;12.238;2024-03-17T14:49:38;8.77;;;4.90;;
38787;SDS011;24536;45.488;12.238;2024-03-17T14:52:04;5.60;;;4.18;;
38787;SDS011;24536;45.488;12.238;2024-03-17T14:54:30;6.20;;;4.40;;
38787;SDS011;24536;45.488;12.238;2024-03-17T14:56:57;5.10;;;3.78;;
38787;SDS011;24536;45.488;12.238;2024-03-17T14:59:23;6.40;;;4.50;;